Portada
METAR-TAF:

METAR-TAF

Aeropuertos :

Chlef, Argelia

latitud: 36-13N, longitud: 001-20E, altitud: 143 m

Observación

El informe se hizo hace 1 hora y 30 minutos, a las 18:00 UTC
Viento 8 kt del norte
Temperatura 25°C
Humedad 22%
Presión 1022 hPa
Visibilidad 10 km o más
sin nubes por debajo de 1500 m y sin presencia de cumulonimbus.

METAR: DAOI 191800Z 35008KT CAVOK 25/02 Q1022

Hora: 20:30 (19:30 UTC)

Pronóstico

El informe se hizo hace 2 horas y 30 minutos, a las 17:00 UTC
Pronóstico válido del 19 a las 18 UTC al 20 a las 18 UTC
Viento 10 kt del norte
Visibilidad 10 km o más
Escasas nubes a una altura de 2600 ft
Evolucionando progresivamente
del 19 a las 20 UTC al 19 a las 22 UTC
Viento 2 kt con dirección variable
Evolucionando progresivamente
del 20 a las 10 UTC al 20 a las 12 UTC
Viento 10 kt del oeste-noroeste

TAF: DAOI 191700Z 1918/2018 36010KT 9999 FEW026 BECMG 1920/1922 VRB02KT BECMG 2010/2012 30010KT

Observaciones y pronósticos meteorológicos de más de 4000 aeropuertos (mensajes METAR y TAF).

Los puntos amarillos y rojos representan las estaciones disponibles.

Ponga el ratón en el punto deseado para ver el nombre de la estación.

Haga clic para ver las observaciones y los pronósticos meteorológicos.

Para cambiar el mapa : haga clic en los botones verdes con una cruz de color negro para hacer un zoom, en el botón verde con un guión para alejar o en las flechas verdes para mapas adyacentes.


METAR-TAF: